createdAt,value
2023-02-14T00:02:07.776Z,29.27
2023-02-14T00:04:34.578Z,31.48
2023-02-14T00:07:01.333Z,29.35
2023-02-14T00:09:27.819Z,30.10
2023-02-14T00:11:54.246Z,30.13
2023-02-14T00:14:39.608Z,29.45
2023-02-14T00:17:06.070Z,28.45
2023-02-14T00:19:34.691Z,29.25
2023-02-14T00:22:01.137Z,30.23
2023-02-14T00:24:27.755Z,31.08
2023-02-14T00:26:54.521Z,33.90
2023-02-14T00:29:28.514Z,31.55
2023-02-14T00:31:55.647Z,30.35
2023-02-14T00:34:22.138Z,34.40
2023-02-14T00:36:48.989Z,31.25
2023-02-14T00:39:16.030Z,33.10
2023-02-14T00:41:42.768Z,33.50
2023-02-14T00:44:10.314Z,32.83
2023-02-14T00:46:36.842Z,33.20
2023-02-14T00:49:03.352Z,34.28
2023-02-14T00:51:30.236Z,32.60
2023-02-14T00:53:56.828Z,32.22
2023-02-14T00:56:23.252Z,30.27
2023-02-14T00:58:49.720Z,30.52
2023-02-14T01:01:16.613Z,32.15
2023-02-14T01:03:43.341Z,33.17
2023-02-14T01:06:09.888Z,32.63
2023-02-14T01:08:36.353Z,34.85
2023-02-14T01:11:21.668Z,34.40
2023-02-14T01:13:49.241Z,35.95
2023-02-14T01:16:17.350Z,34.35
2023-02-14T01:18:44.573Z,33.00
2023-02-14T01:21:13.988Z,35.22
2023-02-14T01:23:41.203Z,34.30
2023-02-14T01:26:08.071Z,34.63
2023-02-14T01:28:34.714Z,35.58
2023-02-14T01:31:11.977Z,34.53
2023-02-14T01:33:39.179Z,33.60
2023-02-14T01:36:05.786Z,34.17
2023-02-14T01:38:32.459Z,31.90
2023-02-14T01:40:59.515Z,32.42
2023-02-14T01:43:26.212Z,32.78
2023-02-14T01:45:52.889Z,32.95
2023-02-14T01:48:21.112Z,33.30
2023-02-14T01:50:48.998Z,34.63
2023-02-14T01:53:18.666Z,32.45
2023-02-14T01:55:47.615Z,32.88
2023-02-14T01:58:16.063Z,31.20
2023-02-14T02:00:59.438Z,29.50
2023-02-14T02:03:27.925Z,29.27
2023-02-14T02:05:57.537Z,28.75
2023-02-14T02:08:24.109Z,28.25
2023-02-14T02:10:50.567Z,27.75
2023-02-14T02:13:18.961Z,27.90
2023-02-14T02:16:11.772Z,28.30
2023-02-14T02:18:57.236Z,28.23
2023-02-14T02:21:33.015Z,27.42
2023-02-14T02:24:12.783Z,29.20
2023-02-14T02:26:58.231Z,28.02
2023-02-14T02:29:24.758Z,25.63
2023-02-14T02:31:51.282Z,26.05
2023-02-14T02:34:47.166Z,26.85
2023-02-14T02:37:13.604Z,26.05
2023-02-14T02:39:58.756Z,25.52
2023-02-14T02:42:34.196Z,24.13
2023-02-14T02:45:11.941Z,26.05
2023-02-14T02:47:47.088Z,25.85
2023-02-14T02:50:44.886Z,26.40
2023-02-14T02:53:21.265Z,27.38
2023-02-14T02:56:14.536Z,27.27
2023-02-14T02:58:59.818Z,26.43
2023-02-14T03:01:41.478Z,26.85
2023-02-14T03:04:29.512Z,25.75
2023-02-14T03:06:56.707Z,28.02
2023-02-14T03:09:23.127Z,26.80
2023-02-14T03:12:05.482Z,25.50
2023-02-14T03:14:35.392Z,27.05
2023-02-14T03:17:06.618Z,28.02
2023-02-14T03:20:03.482Z,25.77
2023-02-14T03:22:38.822Z,26.27
2023-02-14T03:25:17.440Z,25.90
2023-02-14T03:27:56.509Z,25.25
2023-02-14T03:30:26.158Z,24.92
2023-02-14T03:32:55.793Z,25.88
2023-02-14T03:35:25.341Z,25.10
2023-02-14T03:37:54.862Z,25.35
2023-02-14T03:40:25.230Z,25.50
2023-02-14T03:42:57.149Z,25.60
2023-02-14T03:45:27.832Z,24.95
2023-02-14T03:47:55.661Z,25.75
2023-02-14T03:50:22.146Z,26.65
2023-02-14T03:52:51.281Z,27.55
2023-02-14T03:55:20.076Z,26.48
2023-02-14T03:57:47.708Z,26.95
2023-02-14T04:00:14.828Z,26.58
2023-02-14T04:02:44.039Z,25.75
2023-02-14T04:05:16.587Z,29.10
2023-02-14T04:07:47.468Z,30.20
2023-02-14T04:10:14.311Z,28.38
2023-02-14T04:12:40.782Z,29.50
2023-02-14T04:15:07.919Z,28.70
2023-02-14T04:17:52.872Z,28.98
2023-02-14T04:20:19.416Z,28.30
2023-02-14T04:22:46.442Z,28.55
2023-02-14T04:25:13.237Z,27.58
2023-02-14T04:27:39.703Z,28.63
2023-02-14T04:30:06.734Z,28.30
2023-02-14T04:32:33.182Z,27.52
2023-02-14T04:34:59.607Z,27.00
2023-02-14T04:37:26.133Z,28.90
2023-02-14T04:39:52.597Z,26.92
2023-02-14T04:42:19.132Z,27.33
2023-02-14T04:44:45.576Z,27.92
2023-02-14T04:47:12.038Z,27.70
2023-02-14T04:49:38.504Z,27.45
2023-02-14T04:52:05.365Z,25.88
2023-02-14T04:54:32.069Z,26.40
2023-02-14T04:56:58.543Z,26.98
2023-02-14T04:59:25.647Z,28.75
2023-02-14T05:01:52.390Z,27.77
2023-02-14T05:04:19.100Z,35.72
2023-02-14T05:06:45.662Z,30.58
2023-02-14T05:09:12.103Z,31.10
2023-02-14T05:11:38.541Z,29.58
2023-02-14T05:14:05.062Z,29.58
2023-02-14T05:16:31.713Z,30.80
2023-02-14T05:18:58.209Z,29.75
2023-02-14T05:21:24.730Z,32.08
2023-02-14T05:23:51.148Z,30.23
2023-02-14T05:26:17.719Z,31.45
2023-02-14T05:28:44.237Z,31.30
2023-02-14T05:31:10.786Z,32.00
2023-02-14T05:33:37.388Z,31.15
2023-02-14T05:36:04.083Z,30.80
2023-02-14T05:38:31.055Z,30.85
2023-02-14T05:40:57.647Z,32.75
2023-02-14T05:43:24.253Z,31.27
2023-02-14T05:45:50.745Z,29.33
2023-02-14T05:48:17.282Z,31.35
2023-02-14T05:50:45.295Z,27.73
2023-02-14T05:53:12.711Z,31.75
2023-02-14T05:55:39.304Z,29.02
2023-02-14T05:58:06.017Z,29.67
2023-02-14T06:00:32.551Z,32.35
2023-02-14T06:02:58.926Z,29.10
2023-02-14T06:05:25.445Z,33.67
2023-02-14T06:07:52.376Z,38.83
2023-02-14T06:10:19.971Z,35.35
2023-02-14T06:12:47.987Z,32.63
2023-02-14T06:15:14.532Z,33.28
2023-02-14T06:17:40.986Z,32.20
2023-02-14T06:20:09.559Z,30.58
2023-02-14T06:22:36.706Z,31.75
2023-02-14T06:25:03.366Z,31.42
2023-02-14T06:27:30.546Z,33.60
2023-02-14T06:29:57.310Z,31.33
2023-02-14T06:32:24.025Z,31.15
2023-02-14T06:34:50.707Z,31.38
2023-02-14T06:37:17.142Z,35.83
2023-02-14T06:39:43.578Z,34.63
2023-02-14T06:42:10.087Z,32.53
2023-02-14T06:44:36.554Z,35.28
2023-02-14T06:47:03.018Z,35.13
2023-02-14T06:49:29.467Z,33.30
2023-02-14T06:51:55.905Z,31.13
2023-02-14T06:54:22.342Z,31.90
2023-02-14T06:56:48.773Z,30.92
2023-02-14T06:59:15.279Z,30.63
2023-02-14T07:01:41.797Z,29.60
2023-02-14T07:04:08.276Z,31.98
2023-02-14T07:06:36.452Z,42.22
2023-02-14T07:09:03.694Z,45.17
2023-02-14T07:11:30.124Z,36.40
2023-02-14T07:13:56.631Z,35.78
2023-02-14T07:16:23.255Z,35.25
2023-02-14T07:18:49.695Z,35.35
2023-02-14T07:21:16.232Z,36.83
2023-02-14T07:23:46.404Z,38.95
2023-02-14T07:26:17.933Z,37.53
2023-02-14T07:28:45.413Z,36.20
2023-02-14T07:31:12.306Z,38.47
2023-02-14T07:33:38.850Z,37.03
2023-02-14T07:36:05.888Z,36.40
2023-02-14T07:38:32.337Z,37.70
2023-02-14T07:40:59.122Z,37.90
2023-02-14T07:43:25.914Z,37.47
2023-02-14T07:45:52.413Z,37.92
2023-02-14T07:48:18.982Z,36.72
2023-02-14T07:50:45.487Z,35.20
2023-02-14T07:53:12.323Z,35.35
2023-02-14T07:55:52.749Z,36.20
2023-02-14T07:58:19.184Z,36.78
2023-02-14T08:00:46.617Z,35.58
2023-02-14T08:03:13.419Z,35.83
2023-02-14T08:05:40.101Z,38.53
2023-02-14T08:08:06.578Z,35.55
2023-02-14T08:10:33.294Z,37.08
2023-02-14T08:12:59.895Z,37.28
2023-02-14T08:15:45.683Z,36.00
2023-02-14T08:18:12.263Z,35.22
2023-02-14T08:20:38.681Z,35.35
2023-02-14T08:23:05.209Z,37.67
2023-02-14T08:25:31.660Z,38.10
2023-02-14T08:27:58.090Z,38.25
2023-02-14T08:30:24.540Z,42.10
2023-02-14T08:32:51.043Z,42.10
2023-02-14T08:35:17.546Z,38.83
2023-02-14T08:37:44.025Z,40.35
2023-02-14T08:40:10.661Z,38.15
2023-02-14T08:42:37.208Z,40.35
2023-02-14T08:45:03.934Z,38.92
2023-02-14T08:47:35.707Z,40.25
2023-02-14T08:50:02.902Z,37.30
2023-02-14T08:52:29.367Z,36.22
2023-02-14T08:54:55.851Z,36.28
2023-02-14T08:57:22.352Z,37.67
2023-02-14T08:59:48.852Z,31.80
2023-02-14T09:02:16.397Z,32.40
2023-02-14T09:04:42.850Z,30.13
2023-02-14T09:07:09.405Z,26.85
2023-02-14T09:09:35.905Z,24.58
2023-02-14T09:12:06.225Z,24.77
2023-02-14T09:14:36.686Z,32.58
2023-02-14T09:17:05.624Z,39.92
2023-02-14T09:19:32.882Z,30.25
2023-02-14T09:21:59.656Z,26.85
2023-02-14T09:24:27.735Z,22.95
2023-02-14T09:26:54.436Z,23.70
2023-02-14T09:29:20.842Z,24.85
2023-02-14T09:31:47.441Z,67.60
2023-02-14T09:34:14.163Z,25.30
2023-02-14T09:37:01.561Z,36.33
2023-02-14T09:39:28.018Z,39.38
2023-02-14T09:42:06.767Z,29.15
2023-02-14T09:45:02.620Z,24.85
2023-02-14T09:47:38.644Z,37.15
2023-02-14T09:50:06.387Z,43.65
2023-02-14T09:52:33.044Z,26.42
2023-02-14T09:55:01.259Z,28.75
2023-02-14T09:57:42.911Z,28.42
2023-02-14T10:00:15.932Z,23.27
2023-02-14T10:02:42.373Z,24.30
2023-02-14T10:05:15.015Z,27.23
2023-02-14T10:08:00.255Z,25.20
2023-02-14T10:10:26.661Z,27.33
2023-02-14T10:12:56.783Z,28.05
2023-02-14T10:15:34.340Z,24.95
2023-02-14T10:18:13.163Z,24.92
2023-02-14T10:20:43.081Z,24.25
2023-02-14T10:23:22.517Z,24.70
2023-02-14T10:25:51.810Z,24.75
2023-02-14T10:28:22.770Z,40.85
2023-02-14T10:30:54.442Z,25.08
2023-02-14T10:33:22.856Z,25.52
2023-02-14T10:35:50.905Z,25.38
2023-02-14T10:38:36.247Z,24.70
2023-02-14T10:41:06.115Z,25.48
2023-02-14T10:43:41.769Z,25.65
2023-02-14T10:46:27.062Z,24.95
2023-02-14T10:49:26.131Z,26.30
2023-02-14T10:51:55.411Z,26.80
2023-02-14T10:54:24.329Z,27.52
2023-02-14T10:56:50.750Z,26.55
2023-02-14T10:59:17.127Z,26.40
2023-02-14T11:01:43.885Z,25.52
2023-02-14T11:04:12.776Z,27.20
2023-02-14T11:06:39.244Z,27.08
2023-02-14T11:09:05.741Z,27.27
2023-02-14T11:11:32.215Z,29.08
2023-02-14T11:13:58.713Z,27.83
2023-02-14T11:16:30.229Z,27.75
2023-02-14T11:19:08.627Z,27.13
2023-02-14T11:21:39.410Z,27.80
2023-02-14T11:24:17.028Z,26.95
2023-02-14T11:26:46.520Z,26.85
2023-02-14T11:29:14.984Z,27.25
2023-02-14T11:31:42.493Z,26.02
2023-02-14T11:34:31.363Z,26.92
2023-02-14T11:36:57.862Z,31.13
2023-02-14T11:39:32.536Z,26.60
2023-02-14T11:42:01.089Z,26.95
2023-02-14T11:44:29.087Z,30.67
2023-02-14T11:46:56.661Z,27.58
2023-02-14T11:49:31.409Z,27.73
2023-02-14T11:51:59.910Z,28.10
2023-02-14T11:54:34.832Z,46.35
2023-02-14T11:57:01.267Z,28.48
2023-02-14T11:59:30.743Z,28.05
2023-02-14T12:01:58.943Z,26.25
2023-02-14T12:04:32.822Z,26.48
2023-02-14T12:07:13.956Z,29.67
2023-02-14T12:09:42.678Z,26.48
2023-02-14T12:12:17.326Z,25.63
2023-02-14T12:14:43.801Z,27.13
2023-02-14T12:17:30.340Z,32.13
2023-02-14T12:20:03.541Z,30.67
2023-02-14T12:22:33.663Z,30.55
2023-02-14T12:25:03.632Z,27.27
2023-02-14T12:27:34.192Z,27.50
2023-02-14T12:30:12.752Z,27.00
2023-02-14T12:32:43.470Z,25.13
2023-02-14T12:35:15.693Z,26.83
2023-02-14T12:38:04.429Z,25.73
2023-02-14T12:40:43.603Z,26.85
2023-02-14T12:43:19.694Z,25.98
2023-02-14T12:46:04.073Z,29.67
2023-02-14T12:48:39.854Z,26.48
2023-02-14T12:51:10.683Z,35.95
2023-02-14T12:53:55.899Z,25.08
2023-02-14T12:56:22.359Z,25.85
2023-02-14T12:58:51.801Z,26.48
2023-02-14T13:01:39.170Z,26.15
2023-02-14T13:04:25.551Z,28.63
2023-02-14T13:06:57.030Z,36.83
2023-02-14T13:09:32.090Z,45.20
2023-02-14T13:12:04.787Z,39.72
2023-02-14T13:14:34.650Z,25.87
2023-02-14T13:17:11.866Z,25.35
2023-02-14T13:19:44.171Z,25.83
2023-02-14T13:22:13.512Z,29.55
2023-02-14T13:24:45.179Z,28.42
2023-02-14T13:27:13.960Z,26.77
2023-02-14T13:29:45.576Z,29.38
2023-02-14T13:32:14.265Z,33.17
2023-02-14T13:34:46.432Z,26.38
2023-02-14T13:37:14.112Z,25.13
2023-02-14T13:39:44.054Z,29.90
2023-02-14T13:42:10.804Z,31.35
2023-02-14T13:44:44.701Z,26.02
2023-02-14T13:47:21.596Z,26.58
2023-02-14T13:50:02.136Z,26.90
2023-02-14T13:52:44.119Z,25.75
2023-02-14T13:55:19.003Z,25.90
2023-02-14T13:57:45.487Z,25.42
2023-02-14T14:00:17.743Z,29.75
2023-02-14T14:02:50.089Z,26.27
2023-02-14T14:05:32.626Z,24.25
2023-02-14T14:08:19.466Z,24.52
2023-02-14T14:10:53.532Z,25.65
2023-02-14T14:13:38.676Z,24.33
2023-02-14T14:16:26.921Z,24.95
2023-02-14T14:18:55.365Z,26.83
2023-02-14T14:21:34.132Z,25.02
2023-02-14T14:24:12.841Z,24.30
2023-02-14T14:26:42.024Z,24.23
2023-02-14T14:29:31.807Z,25.02
2023-02-14T14:31:58.525Z,24.75
2023-02-14T14:34:26.472Z,25.23
2023-02-14T14:37:06.761Z,24.55
2023-02-14T14:39:34.344Z,25.35
2023-02-14T14:42:08.536Z,25.23
2023-02-14T14:44:35.357Z,23.88
2023-02-14T14:47:02.372Z,25.55
2023-02-14T14:49:29.230Z,24.35
2023-02-14T14:51:56.889Z,24.48
2023-02-14T14:54:25.130Z,26.75
2023-02-14T14:56:56.807Z,25.70
2023-02-14T14:59:23.202Z,29.90
2023-02-14T15:01:54.433Z,25.98
2023-02-14T15:04:31.830Z,26.50
2023-02-14T15:07:16.842Z,28.45
2023-02-14T15:09:44.440Z,26.30
2023-02-14T15:12:31.483Z,29.45
2023-02-14T15:14:58.326Z,31.48
2023-02-14T15:17:24.762Z,35.97
2023-02-14T15:19:55.733Z,29.63
2023-02-14T15:22:26.645Z,26.83
2023-02-14T15:24:53.813Z,27.83
2023-02-14T15:27:22.662Z,31.20
2023-02-14T15:29:59.923Z,25.05
2023-02-14T15:32:28.078Z,26.23
2023-02-14T15:34:54.681Z,26.05
2023-02-14T15:37:21.988Z,25.45
2023-02-14T15:39:50.457Z,28.50
2023-02-14T15:42:22.895Z,28.27
2023-02-14T15:44:49.354Z,27.70
2023-02-14T15:47:16.347Z,26.98
2023-02-14T15:49:43.659Z,30.30
2023-02-14T15:52:14.338Z,28.15
2023-02-14T15:54:46.623Z,28.35
2023-02-14T15:57:39.473Z,30.05
2023-02-14T16:00:12.676Z,34.83
2023-02-14T16:02:41.234Z,34.80
2023-02-14T16:05:28.161Z,33.85
2023-02-14T16:08:22.798Z,33.13
2023-02-14T16:10:59.781Z,33.55
2023-02-14T16:13:39.296Z,36.08
2023-02-14T16:16:06.989Z,38.53
2023-02-14T16:18:33.671Z,35.85
2023-02-14T16:21:31.391Z,57.40
2023-02-14T16:24:07.190Z,84.38
2023-02-14T16:26:34.666Z,50.22
2023-02-14T16:29:04.933Z,45.17
2023-02-14T16:31:32.019Z,35.67
2023-02-14T16:33:58.903Z,41.28
2023-02-14T16:36:29.848Z,36.28
2023-02-14T16:38:57.193Z,33.60
2023-02-14T16:41:26.159Z,33.22
2023-02-14T16:43:52.928Z,32.15
2023-02-14T16:46:31.498Z,29.70
2023-02-14T16:48:58.097Z,31.08
2023-02-14T16:51:29.501Z,30.13
2023-02-14T16:53:57.774Z,28.70
2023-02-14T16:56:28.670Z,33.40
2023-02-14T16:58:57.901Z,31.48
2023-02-14T17:01:24.986Z,30.23
2023-02-14T17:03:51.408Z,33.38
2023-02-14T17:06:20.524Z,32.53
2023-02-14T17:08:47.381Z,35.67
2023-02-14T17:11:13.878Z,33.35
2023-02-14T17:13:42.155Z,32.47
2023-02-14T17:16:11.953Z,31.77
2023-02-14T17:18:38.990Z,32.03
2023-02-14T17:21:05.597Z,32.85
2023-02-14T17:23:32.035Z,32.83
2023-02-14T17:25:58.472Z,34.92
2023-02-14T17:28:26.606Z,32.53
2023-02-14T17:30:53.461Z,33.92
2023-02-14T17:33:20.186Z,30.95
2023-02-14T17:35:46.828Z,32.30
2023-02-14T17:38:13.331Z,32.13
2023-02-14T17:40:40.277Z,34.17
2023-02-14T17:43:07.260Z,31.45
2023-02-14T17:45:33.750Z,31.77
2023-02-14T17:48:01.708Z,31.48
2023-02-14T17:50:28.296Z,30.67
2023-02-14T17:52:55.399Z,32.40
2023-02-14T17:55:22.371Z,31.75
2023-02-14T17:57:52.392Z,30.55
2023-02-14T18:00:20.356Z,33.05
2023-02-14T18:02:46.856Z,33.55
2023-02-14T18:05:13.394Z,32.65
2023-02-14T18:07:40.001Z,34.55
2023-02-14T18:10:06.968Z,37.50
2023-02-14T18:12:33.483Z,34.90
2023-02-14T18:14:59.937Z,36.03
2023-02-14T18:17:26.560Z,35.05
2023-02-14T18:19:53.023Z,35.47
2023-02-14T18:22:19.461Z,41.33
2023-02-14T18:24:45.913Z,49.38
2023-02-14T18:27:15.899Z,55.72
2023-02-14T18:29:42.319Z,76.05
2023-02-14T18:32:08.815Z,86.43
2023-02-14T18:34:38.415Z,92.32
2023-02-14T18:37:06.101Z,75.10
2023-02-14T18:39:32.824Z,72.57
2023-02-14T18:42:00.900Z,70.30
2023-02-14T18:44:28.341Z,67.57
2023-02-14T18:46:54.866Z,60.80
2023-02-14T18:49:21.332Z,57.42
2023-02-14T18:51:49.151Z,57.33
2023-02-14T18:54:15.979Z,53.70
2023-02-14T18:56:42.479Z,53.97
2023-02-14T18:59:09.837Z,54.55
2023-02-14T19:01:38.245Z,51.60
2023-02-14T19:04:06.474Z,50.53
2023-02-14T19:06:34.231Z,51.58
2023-02-14T19:09:01.920Z,48.97
2023-02-14T19:11:31.520Z,50.15
2023-02-14T19:13:59.439Z,50.67
2023-02-14T19:16:28.069Z,52.58
2023-02-14T19:18:54.749Z,48.17
2023-02-14T19:21:25.499Z,51.78
2023-02-14T19:23:53.079Z,49.22
2023-02-14T19:26:20.932Z,51.33
2023-02-14T19:28:48.319Z,50.13
2023-02-14T19:31:15.511Z,52.83
2023-02-14T19:33:43.360Z,54.22
2023-02-14T19:36:12.890Z,52.67
2023-02-14T19:38:40.178Z,50.88
2023-02-14T19:41:07.084Z,50.97
2023-02-14T19:43:33.614Z,50.20
2023-02-14T19:46:00.257Z,50.38
2023-02-14T19:48:26.845Z,50.45
2023-02-14T19:50:54.183Z,48.78
2023-02-14T19:53:20.593Z,51.08
2023-02-14T19:55:47.130Z,50.75
2023-02-14T19:58:13.558Z,50.97
2023-02-14T20:00:40.029Z,50.58
2023-02-14T20:03:07.241Z,49.70
2023-02-14T20:05:36.826Z,49.53
2023-02-14T20:08:03.499Z,49.22
2023-02-14T20:10:29.979Z,49.67
2023-02-14T20:12:56.398Z,48.80
2023-02-14T20:15:22.894Z,49.40
2023-02-14T20:17:49.415Z,48.85
2023-02-14T20:20:17.135Z,49.75
2023-02-14T20:22:43.635Z,49.40
2023-02-14T20:25:10.369Z,50.15
2023-02-14T20:27:37.400Z,52.10
2023-02-14T20:30:04.725Z,50.72
2023-02-14T20:32:31.653Z,49.40
2023-02-14T20:34:58.896Z,52.05
2023-02-14T20:37:25.395Z,50.88
2023-02-14T20:39:51.819Z,50.47
2023-02-14T20:42:18.361Z,52.95
2023-02-14T20:44:45.462Z,52.63
2023-02-14T20:47:11.991Z,47.58
2023-02-14T20:49:39.125Z,47.58
2023-02-14T20:52:06.037Z,48.38
2023-02-14T20:54:32.582Z,49.92
2023-02-14T20:56:59.115Z,50.75
2023-02-14T20:59:28.850Z,48.95
2023-02-14T21:01:56.329Z,49.42
2023-02-14T21:04:22.928Z,51.05
2023-02-14T21:06:49.491Z,52.08
2023-02-14T21:09:16.206Z,51.40
2023-02-14T21:11:42.621Z,53.03
2023-02-14T21:14:09.121Z,50.55
2023-02-14T21:16:35.571Z,50.00
2023-02-14T21:19:02.102Z,48.33
2023-02-14T21:21:32.566Z,46.85
2023-02-14T21:24:00.161Z,45.92
2023-02-14T21:26:26.833Z,46.25
2023-02-14T21:28:53.338Z,46.95
2023-02-14T21:31:21.046Z,45.72
2023-02-14T21:33:55.415Z,44.65
2023-02-14T21:36:22.908Z,42.88
2023-02-14T21:38:49.692Z,45.20
2023-02-14T21:41:17.572Z,43.85
2023-02-14T21:43:44.686Z,44.08
2023-02-14T21:46:12.448Z,44.28
2023-02-14T21:49:11.258Z,43.13
2023-02-14T21:51:38.674Z,47.20
2023-02-14T21:54:05.661Z,44.22
2023-02-14T21:56:32.270Z,45.40
2023-02-14T21:58:58.709Z,43.72
2023-02-14T22:01:26.590Z,45.80
2023-02-14T22:03:53.338Z,43.95
2023-02-14T22:06:20.238Z,43.72
2023-02-14T22:08:46.839Z,44.30
2023-02-14T22:11:14.396Z,44.47
2023-02-14T22:13:41.220Z,44.92
2023-02-14T22:16:09.713Z,46.72
2023-02-14T22:18:36.207Z,47.80
2023-02-14T22:21:03.868Z,43.33
2023-02-14T22:23:31.232Z,46.22
2023-02-14T22:26:07.505Z,41.47
2023-02-14T22:28:33.960Z,45.03
2023-02-14T22:31:04.088Z,43.45
2023-02-14T22:33:31.045Z,45.05
2023-02-14T22:35:58.274Z,44.55
2023-02-14T22:38:24.749Z,46.10
2023-02-14T22:40:51.478Z,46.20
2023-02-14T22:43:17.943Z,46.00
2023-02-14T22:45:44.510Z,47.33
2023-02-14T22:48:10.962Z,46.50
2023-02-14T22:50:37.426Z,53.58
2023-02-14T22:53:03.976Z,50.58
2023-02-14T22:55:30.797Z,51.90
2023-02-14T22:57:57.343Z,51.65
2023-02-14T23:00:24.000Z,51.15
2023-02-14T23:02:50.485Z,52.55
2023-02-14T23:05:17.734Z,54.35
2023-02-14T23:07:44.207Z,50.65
2023-02-14T23:10:10.806Z,50.97
2023-02-14T23:12:55.880Z,49.83
2023-02-14T23:15:40.808Z,51.13
2023-02-14T23:18:29.099Z,49.63
2023-02-14T23:21:13.828Z,47.88
2023-02-14T23:23:40.321Z,49.00
2023-02-14T23:26:06.771Z,50.60
2023-02-14T23:28:33.257Z,46.75
2023-02-14T23:31:01.235Z,49.30
2023-02-14T23:33:27.749Z,47.28
2023-02-14T23:35:54.198Z,48.17
2023-02-14T23:38:20.603Z,46.85
2023-02-14T23:41:05.689Z,48.70
2023-02-14T23:43:32.288Z,48.13
2023-02-14T23:46:00.184Z,47.25
2023-02-14T23:48:26.914Z,46.67
2023-02-14T23:50:53.367Z,44.55
2023-02-14T23:53:19.834Z,46.67
2023-02-14T23:55:46.323Z,48.00
2023-02-14T23:58:12.781Z,45.13
